sensor_id;sensor_type;location;lat;lon;timestamp;P1;durP1;ratioP1;P2;durP2;ratioP2
31482;SDS011;18103;52.246;8.052;2023-04-15T00:01:01;6.67;;;3.27;;
31482;SDS011;18103;52.246;8.052;2023-04-15T00:03:26;4.27;;;2.90;;
31482;SDS011;18103;52.246;8.052;2023-04-15T00:05:52;3.40;;;2.47;;
31482;SDS011;18103;52.246;8.052;2023-04-15T00:08:18;5.27;;;2.73;;
31482;SDS011;18103;52.246;8.052;2023-04-15T00:10:44;7.03;;;3.00;;
31482;SDS011;18103;52.246;8.052;2023-04-15T00:13:10;5.63;;;2.63;;
31482;SDS011;18103;52.246;8.052;2023-04-15T00:15:43;6.23;;;2.60;;
31482;SDS011;18103;52.246;8.052;2023-04-15T00:18:11;6.37;;;2.30;;
31482;SDS011;18103;52.246;8.052;2023-04-15T00:20:36;5.83;;;3.23;;
31482;SDS011;18103;52.246;8.052;2023-04-15T00:23:04;4.20;;;2.57;;
31482;SDS011;18103;52.246;8.052;2023-04-15T00:25:32;6.07;;;2.93;;
31482;SDS011;18103;52.246;8.052;2023-04-15T00:27:57;5.87;;;2.63;;
31482;SDS011;18103;52.246;8.052;2023-04-15T00:30:22;4.77;;;2.90;;
31482;SDS011;18103;52.246;8.052;2023-04-15T00:32:51;6.00;;;3.40;;
31482;SDS011;18103;52.246;8.052;2023-04-15T00:35:19;6.17;;;3.07;;
31482;SDS011;18103;52.246;8.052;2023-04-15T00:37:44;7.13;;;4.03;;
31482;SDS011;18103;52.246;8.052;2023-04-15T00:40:13;6.87;;;2.77;;
31482;SDS011;18103;52.246;8.052;2023-04-15T00:42:48;5.00;;;3.03;;
31482;SDS011;18103;52.246;8.052;2023-04-15T00:45:16;5.60;;;3.50;;
31482;SDS011;18103;52.246;8.052;2023-04-15T00:47:42;6.50;;;3.20;;
31482;SDS011;18103;52.246;8.052;2023-04-15T00:50:08;8.83;;;3.40;;
31482;SDS011;18103;52.246;8.052;2023-04-15T00:52:36;9.97;;;3.23;;
31482;SDS011;18103;52.246;8.052;2023-04-15T00:55:02;6.47;;;3.60;;
31482;SDS011;18103;52.246;8.052;2023-04-15T00:57:28;5.33;;;3.00;;
31482;SDS011;18103;52.246;8.052;2023-04-15T01:00:00;6.13;;;3.33;;
31482;SDS011;18103;52.246;8.052;2023-04-15T01:02:28;7.23;;;3.20;;
31482;SDS011;18103;52.246;8.052;2023-04-15T01:04:58;4.10;;;3.07;;
31482;SDS011;18103;52.246;8.052;2023-04-15T01:07:28;7.83;;;3.10;;
31482;SDS011;18103;52.246;8.052;2023-04-15T01:09:53;4.97;;;3.50;;
31482;SDS011;18103;52.246;8.052;2023-04-15T01:12:19;6.17;;;3.67;;
31482;SDS011;18103;52.246;8.052;2023-04-15T01:14:45;8.03;;;3.07;;
31482;SDS011;18103;52.246;8.052;2023-04-15T01:17:12;8.90;;;3.53;;
31482;SDS011;18103;52.246;8.052;2023-04-15T01:19:38;6.53;;;4.07;;
31482;SDS011;18103;52.246;8.052;2023-04-15T01:22:04;5.23;;;3.60;;
31482;SDS011;18103;52.246;8.052;2023-04-15T01:24:34;9.67;;;3.87;;
31482;SDS011;18103;52.246;8.052;2023-04-15T01:27:00;6.70;;;3.83;;
31482;SDS011;18103;52.246;8.052;2023-04-15T01:29:26;6.17;;;3.57;;
31482;SDS011;18103;52.246;8.052;2023-04-15T01:31:54;6.10;;;4.00;;
31482;SDS011;18103;52.246;8.052;2023-04-15T01:34:20;6.57;;;3.77;;
31482;SDS011;18103;52.246;8.052;2023-04-15T01:36:48;9.57;;;3.80;;
31482;SDS011;18103;52.246;8.052;2023-04-15T01:39:16;8.57;;;4.33;;
31482;SDS011;18103;52.246;8.052;2023-04-15T01:41:41;5.27;;;3.60;;
31482;SDS011;18103;52.246;8.052;2023-04-15T01:44:07;6.93;;;4.07;;
31482;SDS011;18103;52.246;8.052;2023-04-15T01:46:35;5.40;;;3.13;;
31482;SDS011;18103;52.246;8.052;2023-04-15T01:49:01;6.30;;;3.63;;
31482;SDS011;18103;52.246;8.052;2023-04-15T01:51:26;6.70;;;3.63;;
31482;SDS011;18103;52.246;8.052;2023-04-15T01:53:52;8.47;;;4.07;;
31482;SDS011;18103;52.246;8.052;2023-04-15T01:56:20;6.07;;;3.63;;
31482;SDS011;18103;52.246;8.052;2023-04-15T01:58:46;9.93;;;4.13;;
31482;SDS011;18103;52.246;8.052;2023-04-15T02:01:14;8.23;;;3.97;;
31482;SDS011;18103;52.246;8.052;2023-04-15T02:03:40;7.87;;;3.83;;
31482;SDS011;18103;52.246;8.052;2023-04-15T02:06:06;6.70;;;4.23;;
31482;SDS011;18103;52.246;8.052;2023-04-15T02:08:32;7.47;;;4.40;;
31482;SDS011;18103;52.246;8.052;2023-04-15T02:10:59;6.77;;;4.20;;
31482;SDS011;18103;52.246;8.052;2023-04-15T02:13:25;5.17;;;3.37;;
31482;SDS011;18103;52.246;8.052;2023-04-15T02:15:53;6.57;;;4.60;;
31482;SDS011;18103;52.246;8.052;2023-04-15T02:18:23;8.13;;;3.73;;
31482;SDS011;18103;52.246;8.052;2023-04-15T02:20:51;8.63;;;3.50;;
31482;SDS011;18103;52.246;8.052;2023-04-15T02:23:20;7.27;;;3.80;;
31482;SDS011;18103;52.246;8.052;2023-04-15T02:25:45;6.03;;;4.23;;
31482;SDS011;18103;52.246;8.052;2023-04-15T02:28:11;7.90;;;3.97;;
31482;SDS011;18103;52.246;8.052;2023-04-15T02:30:39;8.87;;;4.60;;
31482;SDS011;18103;52.246;8.052;2023-04-15T02:33:07;5.80;;;4.07;;
31482;SDS011;18103;52.246;8.052;2023-04-15T02:35:32;5.27;;;3.83;;
31482;SDS011;18103;52.246;8.052;2023-04-15T02:38:03;6.73;;;4.07;;
31482;SDS011;18103;52.246;8.052;2023-04-15T02:40:31;8.70;;;4.70;;
31482;SDS011;18103;52.246;8.052;2023-04-15T02:42:57;8.03;;;4.07;;
31482;SDS011;18103;52.246;8.052;2023-04-15T02:45:22;6.57;;;4.03;;
31482;SDS011;18103;52.246;8.052;2023-04-15T02:47:53;6.83;;;4.27;;
31482;SDS011;18103;52.246;8.052;2023-04-15T02:50:21;7.60;;;4.77;;
31482;SDS011;18103;52.246;8.052;2023-04-15T02:52:47;7.63;;;4.40;;
31482;SDS011;18103;52.246;8.052;2023-04-15T02:55:12;6.13;;;4.40;;
31482;SDS011;18103;52.246;8.052;2023-04-15T02:57:38;12.77;;;4.33;;
31482;SDS011;18103;52.246;8.052;2023-04-15T03:00:05;8.13;;;4.00;;
31482;SDS011;18103;52.246;8.052;2023-04-15T03:02:37;10.43;;;4.90;;
31482;SDS011;18103;52.246;8.052;2023-04-15T03:05:03;7.20;;;4.33;;
31482;SDS011;18103;52.246;8.052;2023-04-15T03:07:31;8.67;;;4.20;;
31482;SDS011;18103;52.246;8.052;2023-04-15T03:09:59;7.53;;;4.40;;
31482;SDS011;18103;52.246;8.052;2023-04-15T03:12:24;7.37;;;4.20;;
31482;SDS011;18103;52.246;8.052;2023-04-15T03:14:49;7.97;;;4.37;;
31482;SDS011;18103;52.246;8.052;2023-04-15T03:17:15;8.63;;;4.27;;
31482;SDS011;18103;52.246;8.052;2023-04-15T03:19:41;9.00;;;4.50;;
31482;SDS011;18103;52.246;8.052;2023-04-15T03:22:08;7.30;;;4.60;;
31482;SDS011;18103;52.246;8.052;2023-04-15T03:24:36;7.40;;;4.87;;
31482;SDS011;18103;52.246;8.052;2023-04-15T03:27:01;8.50;;;5.23;;
31482;SDS011;18103;52.246;8.052;2023-04-15T03:29:27;12.13;;;4.40;;
31482;SDS011;18103;52.246;8.052;2023-04-15T03:31:57;8.33;;;4.87;;
31482;SDS011;18103;52.246;8.052;2023-04-15T03:34:23;12.33;;;5.33;;
31482;SDS011;18103;52.246;8.052;2023-04-15T03:36:48;9.00;;;4.93;;
31482;SDS011;18103;52.246;8.052;2023-04-15T03:39:13;11.97;;;5.00;;
31482;SDS011;18103;52.246;8.052;2023-04-15T03:41:39;7.10;;;4.47;;
31482;SDS011;18103;52.246;8.052;2023-04-15T03:44:06;9.90;;;4.67;;
31482;SDS011;18103;52.246;8.052;2023-04-15T03:46:32;7.33;;;4.50;;
31482;SDS011;18103;52.246;8.052;2023-04-15T03:48:57;8.50;;;4.83;;
31482;SDS011;18103;52.246;8.052;2023-04-15T03:51:27;7.67;;;4.70;;
31482;SDS011;18103;52.246;8.052;2023-04-15T03:53:55;7.37;;;5.13;;
31482;SDS011;18103;52.246;8.052;2023-04-15T03:56:20;6.77;;;4.20;;
31482;SDS011;18103;52.246;8.052;2023-04-15T03:58:46;7.67;;;4.70;;
31482;SDS011;18103;52.246;8.052;2023-04-15T04:01:11;8.10;;;5.03;;
31482;SDS011;18103;52.246;8.052;2023-04-15T04:03:40;7.50;;;4.80;;
31482;SDS011;18103;52.246;8.052;2023-04-15T04:06:05;8.17;;;4.97;;
31482;SDS011;18103;52.246;8.052;2023-04-15T04:08:32;7.43;;;4.73;;
31482;SDS011;18103;52.246;8.052;2023-04-15T04:10:57;6.87;;;5.23;;
31482;SDS011;18103;52.246;8.052;2023-04-15T04:13:22;6.73;;;4.73;;
31482;SDS011;18103;52.246;8.052;2023-04-15T04:15:51;9.13;;;5.70;;
31482;SDS011;18103;52.246;8.052;2023-04-15T04:18:16;6.90;;;4.43;;
31482;SDS011;18103;52.246;8.052;2023-04-15T04:20:41;8.57;;;5.10;;
31482;SDS011;18103;52.246;8.052;2023-04-15T04:23:07;8.50;;;5.17;;
31482;SDS011;18103;52.246;8.052;2023-04-15T04:25:32;10.27;;;4.57;;
31482;SDS011;18103;52.246;8.052;2023-04-15T04:27:58;7.80;;;5.50;;
31482;SDS011;18103;52.246;8.052;2023-04-15T04:30:23;9.30;;;5.07;;
31482;SDS011;18103;52.246;8.052;2023-04-15T04:32:51;10.57;;;5.53;;
31482;SDS011;18103;52.246;8.052;2023-04-15T04:35:16;8.43;;;5.07;;
31482;SDS011;18103;52.246;8.052;2023-04-15T04:37:42;7.83;;;4.83;;
31482;SDS011;18103;52.246;8.052;2023-04-15T04:40:07;7.60;;;4.50;;
31482;SDS011;18103;52.246;8.052;2023-04-15T04:42:33;12.33;;;5.73;;
31482;SDS011;18103;52.246;8.052;2023-04-15T04:44:59;10.67;;;5.97;;
31482;SDS011;18103;52.246;8.052;2023-04-15T04:47:24;12.30;;;6.30;;
31482;SDS011;18103;52.246;8.052;2023-04-15T04:49:52;11.70;;;5.50;;
31482;SDS011;18103;52.246;8.052;2023-04-15T04:52:17;15.47;;;5.33;;
31482;SDS011;18103;52.246;8.052;2023-04-15T04:54:49;11.27;;;6.57;;
31482;SDS011;18103;52.246;8.052;2023-04-15T04:57:15;10.60;;;5.80;;
31482;SDS011;18103;52.246;8.052;2023-04-15T04:59:40;10.53;;;5.83;;
31482;SDS011;18103;52.246;8.052;2023-04-15T05:02:08;10.07;;;5.70;;
31482;SDS011;18103;52.246;8.052;2023-04-15T05:04:33;10.07;;;5.17;;
31482;SDS011;18103;52.246;8.052;2023-04-15T05:07:04;11.23;;;7.10;;
31482;SDS011;18103;52.246;8.052;2023-04-15T05:09:32;10.37;;;6.10;;
31482;SDS011;18103;52.246;8.052;2023-04-15T05:12:00;12.13;;;6.43;;
31482;SDS011;18103;52.246;8.052;2023-04-15T05:14:25;12.40;;;6.10;;
31482;SDS011;18103;52.246;8.052;2023-04-15T05:16:53;12.53;;;6.17;;
31482;SDS011;18103;52.246;8.052;2023-04-15T05:19:19;13.00;;;6.47;;
31482;SDS011;18103;52.246;8.052;2023-04-15T05:21:44;11.83;;;6.30;;
31482;SDS011;18103;52.246;8.052;2023-04-15T05:24:12;10.87;;;6.20;;
31482;SDS011;18103;52.246;8.052;2023-04-15T05:26:39;11.80;;;6.57;;
31482;SDS011;18103;52.246;8.052;2023-04-15T05:29:07;14.67;;;7.60;;
31482;SDS011;18103;52.246;8.052;2023-04-15T05:31:32;16.63;;;7.43;;
31482;SDS011;18103;52.246;8.052;2023-04-15T05:34:00;11.83;;;7.43;;
31482;SDS011;18103;52.246;8.052;2023-04-15T05:36:25;13.93;;;7.30;;
31482;SDS011;18103;52.246;8.052;2023-04-15T05:38:51;12.47;;;7.53;;
31482;SDS011;18103;52.246;8.052;2023-04-15T05:41:19;12.73;;;7.53;;
31482;SDS011;18103;52.246;8.052;2023-04-15T05:43:47;12.93;;;7.17;;
31482;SDS011;18103;52.246;8.052;2023-04-15T05:46:13;11.77;;;7.57;;
31482;SDS011;18103;52.246;8.052;2023-04-15T05:48:38;15.93;;;7.57;;
31482;SDS011;18103;52.246;8.052;2023-04-15T05:51:06;19.13;;;8.50;;
31482;SDS011;18103;52.246;8.052;2023-04-15T05:53:31;16.20;;;8.83;;
31482;SDS011;18103;52.246;8.052;2023-04-15T05:55:57;16.57;;;9.20;;
31482;SDS011;18103;52.246;8.052;2023-04-15T05:58:25;14.40;;;8.23;;
31482;SDS011;18103;52.246;8.052;2023-04-15T06:00:51;16.67;;;9.17;;
31482;SDS011;18103;52.246;8.052;2023-04-15T06:03:18;20.60;;;9.33;;
31482;SDS011;18103;52.246;8.052;2023-04-15T06:05:46;17.13;;;9.40;;
31482;SDS011;18103;52.246;8.052;2023-04-15T06:08:17;19.07;;;9.20;;
31482;SDS011;18103;52.246;8.052;2023-04-15T06:10:45;16.83;;;9.53;;
31482;SDS011;18103;52.246;8.052;2023-04-15T06:13:13;15.83;;;9.40;;
31482;SDS011;18103;52.246;8.052;2023-04-15T06:15:41;16.30;;;9.40;;
31482;SDS011;18103;52.246;8.052;2023-04-15T06:18:06;16.57;;;9.43;;
31482;SDS011;18103;52.246;8.052;2023-04-15T06:20:31;17.90;;;9.83;;
31482;SDS011;18103;52.246;8.052;2023-04-15T06:23:01;18.17;;;8.70;;
31482;SDS011;18103;52.246;8.052;2023-04-15T06:25:27;17.10;;;9.17;;
31482;SDS011;18103;52.246;8.052;2023-04-15T06:27:52;17.90;;;9.93;;
31482;SDS011;18103;52.246;8.052;2023-04-15T06:30:17;17.57;;;9.43;;
31482;SDS011;18103;52.246;8.052;2023-04-15T06:32:43;18.03;;;9.87;;
31482;SDS011;18103;52.246;8.052;2023-04-15T06:35:11;21.07;;;9.77;;
31482;SDS011;18103;52.246;8.052;2023-04-15T06:37:36;16.73;;;9.13;;
31482;SDS011;18103;52.246;8.052;2023-04-15T06:40:04;16.30;;;8.73;;
31482;SDS011;18103;52.246;8.052;2023-04-15T06:42:32;18.90;;;9.07;;
31482;SDS011;18103;52.246;8.052;2023-04-15T06:45:00;17.37;;;8.90;;
31482;SDS011;18103;52.246;8.052;2023-04-15T06:47:28;16.93;;;9.33;;
31482;SDS011;18103;52.246;8.052;2023-04-15T06:49:54;15.20;;;8.47;;
31482;SDS011;18103;52.246;8.052;2023-04-15T06:52:19;16.07;;;9.47;;
31482;SDS011;18103;52.246;8.052;2023-04-15T06:54:45;19.53;;;9.20;;
31482;SDS011;18103;52.246;8.052;2023-04-15T06:57:13;18.80;;;8.80;;
31482;SDS011;18103;52.246;8.052;2023-04-15T06:59:38;16.13;;;8.20;;
31482;SDS011;18103;52.246;8.052;2023-04-15T07:02:03;20.90;;;10.10;;
31482;SDS011;18103;52.246;8.052;2023-04-15T07:04:29;13.33;;;7.23;;
31482;SDS011;18103;52.246;8.052;2023-04-15T07:06:54;15.97;;;8.23;;
31482;SDS011;18103;52.246;8.052;2023-04-15T07:09:22;12.53;;;8.00;;
31482;SDS011;18103;52.246;8.052;2023-04-15T07:11:52;16.30;;;8.73;;
31482;SDS011;18103;52.246;8.052;2023-04-15T07:14:20;16.47;;;7.80;;
31482;SDS011;18103;52.246;8.052;2023-04-15T07:16:45;17.03;;;9.43;;
31482;SDS011;18103;52.246;8.052;2023-04-15T07:19:11;16.23;;;8.93;;
31482;SDS011;18103;52.246;8.052;2023-04-15T07:21:36;15.00;;;7.97;;
31482;SDS011;18103;52.246;8.052;2023-04-15T07:24:04;15.03;;;8.17;;
31482;SDS011;18103;52.246;8.052;2023-04-15T07:26:29;15.23;;;7.33;;
31482;SDS011;18103;52.246;8.052;2023-04-15T07:28:55;19.43;;;9.13;;
31482;SDS011;18103;52.246;8.052;2023-04-15T07:31:22;20.60;;;8.37;;
31482;SDS011;18103;52.246;8.052;2023-04-15T07:33:48;14.70;;;7.73;;
31482;SDS011;18103;52.246;8.052;2023-04-15T07:36:16;16.17;;;8.07;;
31482;SDS011;18103;52.246;8.052;2023-04-15T07:38:41;14.73;;;7.90;;
31482;SDS011;18103;52.246;8.052;2023-04-15T07:41:07;18.37;;;8.73;;
31482;SDS011;18103;52.246;8.052;2023-04-15T07:43:32;16.03;;;7.73;;
31482;SDS011;18103;52.246;8.052;2023-04-15T07:45:58;13.70;;;7.47;;
31482;SDS011;18103;52.246;8.052;2023-04-15T07:48:24;19.47;;;9.10;;
31482;SDS011;18103;52.246;8.052;2023-04-15T07:50:49;14.67;;;7.50;;
31482;SDS011;18103;52.246;8.052;2023-04-15T07:53:17;20.10;;;8.37;;
31482;SDS011;18103;52.246;8.052;2023-04-15T07:55:45;16.83;;;8.97;;
31482;SDS011;18103;52.246;8.052;2023-04-15T07:58:10;13.30;;;8.00;;
31482;SDS011;18103;52.246;8.052;2023-04-15T08:00:40;13.60;;;7.90;;
31482;SDS011;18103;52.246;8.052;2023-04-15T08:03:08;16.33;;;8.60;;
31482;SDS011;18103;52.246;8.052;2023-04-15T08:05:34;14.87;;;8.03;;
31482;SDS011;18103;52.246;8.052;2023-04-15T08:07:59;14.47;;;7.03;;
31482;SDS011;18103;52.246;8.052;2023-04-15T08:10:25;16.70;;;8.57;;
31482;SDS011;18103;52.246;8.052;2023-04-15T08:12:53;17.07;;;7.97;;
31482;SDS011;18103;52.246;8.052;2023-04-15T08:15:19;15.90;;;8.37;;
31482;SDS011;18103;52.246;8.052;2023-04-15T08:17:45;21.80;;;8.20;;
31482;SDS011;18103;52.246;8.052;2023-04-15T08:20:13;15.43;;;7.23;;
31482;SDS011;18103;52.246;8.052;2023-04-15T08:22:40;21.13;;;8.67;;
31482;SDS011;18103;52.246;8.052;2023-04-15T08:25:06;15.60;;;8.20;;
31482;SDS011;18103;52.246;8.052;2023-04-15T08:27:33;14.87;;;7.97;;
31482;SDS011;18103;52.246;8.052;2023-04-15T08:29:58;13.83;;;7.10;;
31482;SDS011;18103;52.246;8.052;2023-04-15T08:32:24;14.63;;;7.37;;
31482;SDS011;18103;52.246;8.052;2023-04-15T08:34:50;16.47;;;7.50;;
31482;SDS011;18103;52.246;8.052;2023-04-15T08:37:16;12.93;;;7.47;;
31482;SDS011;18103;52.246;8.052;2023-04-15T08:39:46;13.83;;;7.57;;
31482;SDS011;18103;52.246;8.052;2023-04-15T08:42:15;13.50;;;6.87;;
31482;SDS011;18103;52.246;8.052;2023-04-15T08:44:45;16.53;;;7.73;;
31482;SDS011;18103;52.246;8.052;2023-04-15T08:47:12;18.00;;;7.73;;
31482;SDS011;18103;52.246;8.052;2023-04-15T08:49:41;13.50;;;7.70;;
31482;SDS011;18103;52.246;8.052;2023-04-15T08:52:09;11.43;;;6.73;;
31482;SDS011;18103;52.246;8.052;2023-04-15T08:54:37;12.93;;;6.90;;
31482;SDS011;18103;52.246;8.052;2023-04-15T08:57:04;11.87;;;6.80;;
31482;SDS011;18103;52.246;8.052;2023-04-15T08:59:30;11.60;;;6.30;;
31482;SDS011;18103;52.246;8.052;2023-04-15T09:01:56;9.73;;;5.37;;
31482;SDS011;18103;52.246;8.052;2023-04-15T09:04:22;12.13;;;5.80;;
31482;SDS011;18103;52.246;8.052;2023-04-15T09:06:50;10.70;;;5.90;;
31482;SDS011;18103;52.246;8.052;2023-04-15T09:09:16;11.33;;;5.90;;
31482;SDS011;18103;52.246;8.052;2023-04-15T09:11:44;13.33;;;5.93;;
31482;SDS011;18103;52.246;8.052;2023-04-15T09:14:09;8.77;;;5.20;;
31482;SDS011;18103;52.246;8.052;2023-04-15T09:19:22;9.00;;;5.50;;
31482;SDS011;18103;52.246;8.052;2023-04-15T09:21:56;14.77;;;5.53;;
31482;SDS011;18103;52.246;8.052;2023-04-15T09:24:22;9.73;;;4.87;;
31482;SDS011;18103;52.246;8.052;2023-04-15T09:26:51;7.83;;;4.27;;
31482;SDS011;18103;52.246;8.052;2023-04-15T09:29:19;7.07;;;4.10;;
31482;SDS011;18103;52.246;8.052;2023-04-15T09:31:48;8.10;;;4.30;;
31482;SDS011;18103;52.246;8.052;2023-04-15T09:34:14;10.60;;;5.00;;
31482;SDS011;18103;52.246;8.052;2023-04-15T09:39:11;6.80;;;4.23;;
31482;SDS011;18103;52.246;8.052;2023-04-15T09:41:40;8.30;;;4.03;;
31482;SDS011;18103;52.246;8.052;2023-04-15T09:44:21;6.27;;;3.67;;
31482;SDS011;18103;52.246;8.052;2023-04-15T09:46:52;8.10;;;4.37;;
31482;SDS011;18103;52.246;8.052;2023-04-15T09:49:19;11.70;;;4.83;;
31482;SDS011;18103;52.246;8.052;2023-04-15T09:51:45;8.10;;;4.50;;
31482;SDS011;18103;52.246;8.052;2023-04-15T09:54:11;10.20;;;4.83;;
31482;SDS011;18103;52.246;8.052;2023-04-15T09:56:37;7.03;;;4.20;;
31482;SDS011;18103;52.246;8.052;2023-04-15T09:59:09;7.50;;;3.90;;
31482;SDS011;18103;52.246;8.052;2023-04-15T10:01:36;8.23;;;4.53;;
31482;SDS011;18103;52.246;8.052;2023-04-15T10:04:06;8.70;;;4.50;;
31482;SDS011;18103;52.246;8.052;2023-04-15T10:06:32;10.23;;;3.97;;
31482;SDS011;18103;52.246;8.052;2023-04-15T10:09:01;13.27;;;5.43;;
31482;SDS011;18103;52.246;8.052;2023-04-15T10:11:27;10.37;;;6.53;;
31482;SDS011;18103;52.246;8.052;2023-04-15T10:13:56;8.90;;;5.43;;
31482;SDS011;18103;52.246;8.052;2023-04-15T10:16:22;7.03;;;4.07;;
31482;SDS011;18103;52.246;8.052;2023-04-15T10:18:54;9.20;;;4.73;;
31482;SDS011;18103;52.246;8.052;2023-04-15T10:21:21;6.30;;;3.87;;
31482;SDS011;18103;52.246;8.052;2023-04-15T10:23:47;6.90;;;4.13;;
31482;SDS011;18103;52.246;8.052;2023-04-15T10:26:13;7.53;;;4.53;;
31482;SDS011;18103;52.246;8.052;2023-04-15T10:28:41;8.33;;;4.47;;
31482;SDS011;18103;52.246;8.052;2023-04-15T10:31:06;7.43;;;4.33;;
31482;SDS011;18103;52.246;8.052;2023-04-15T10:33:32;5.80;;;3.73;;
31482;SDS011;18103;52.246;8.052;2023-04-15T10:35:59;7.60;;;4.10;;
31482;SDS011;18103;52.246;8.052;2023-04-15T10:44:03;9.13;;;3.67;;
31482;SDS011;18103;52.246;8.052;2023-04-15T10:46:36;7.03;;;3.67;;
31482;SDS011;18103;52.246;8.052;2023-04-15T10:49:16;5.83;;;3.50;;
31482;SDS011;18103;52.246;8.052;2023-04-15T10:51:54;4.43;;;3.20;;
31482;SDS011;18103;52.246;8.052;2023-04-15T10:57:36;5.47;;;2.90;;
31482;SDS011;18103;52.246;8.052;2023-04-15T10:59:59;4.07;;;2.40;;
31482;SDS011;18103;52.246;8.052;2023-04-15T11:02:41;4.20;;;2.60;;
31482;SDS011;18103;52.246;8.052;2023-04-15T11:05:10;4.70;;;2.83;;
31482;SDS011;18103;52.246;8.052;2023-04-15T11:12:50;5.73;;;3.13;;
31482;SDS011;18103;52.246;8.052;2023-04-15T11:15:35;4.33;;;2.77;;
31482;SDS011;18103;52.246;8.052;2023-04-15T11:18:08;4.87;;;2.53;;
31482;SDS011;18103;52.246;8.052;2023-04-15T11:20:35;2.80;;;2.13;;
31482;SDS011;18103;52.246;8.052;2023-04-15T11:23:03;7.90;;;3.00;;
31482;SDS011;18103;52.246;8.052;2023-04-15T11:25:30;8.90;;;2.93;;
31482;SDS011;18103;52.246;8.052;2023-04-15T11:27:58;4.20;;;2.17;;
31482;SDS011;18103;52.246;8.052;2023-04-15T11:30:27;4.60;;;2.20;;
31482;SDS011;18103;52.246;8.052;2023-04-15T11:32:58;4.63;;;2.47;;
31482;SDS011;18103;52.246;8.052;2023-04-15T11:35:27;6.90;;;2.37;;
31482;SDS011;18103;52.246;8.052;2023-04-15T11:37:53;5.00;;;2.30;;
31482;SDS011;18103;52.246;8.052;2023-04-15T11:40:27;3.27;;;2.07;;
31482;SDS011;18103;52.246;8.052;2023-04-15T11:43:11;3.03;;;2.17;;
31482;SDS011;18103;52.246;8.052;2023-04-15T11:48:15;7.30;;;2.57;;
31482;SDS011;18103;52.246;8.052;2023-04-15T11:50:41;3.67;;;2.33;;
31482;SDS011;18103;52.246;8.052;2023-04-15T11:53:07;3.53;;;2.17;;
31482;SDS011;18103;52.246;8.052;2023-04-15T11:55:45;6.60;;;2.33;;
31482;SDS011;18103;52.246;8.052;2023-04-15T11:58:14;4.87;;;2.60;;
31482;SDS011;18103;52.246;8.052;2023-04-15T12:00:54;3.40;;;1.77;;
31482;SDS011;18103;52.246;8.052;2023-04-15T12:08:49;2.97;;;1.87;;
31482;SDS011;18103;52.246;8.052;2023-04-15T12:13:53;3.77;;;1.77;;
31482;SDS011;18103;52.246;8.052;2023-04-15T12:16:20;3.20;;;2.13;;
31482;SDS011;18103;52.246;8.052;2023-04-15T12:18:50;5.80;;;2.30;;
31482;SDS011;18103;52.246;8.052;2023-04-15T12:21:21;3.57;;;1.87;;
31482;SDS011;18103;52.246;8.052;2023-04-15T12:23:50;2.80;;;1.93;;
31482;SDS011;18103;52.246;8.052;2023-04-15T12:26:17;2.97;;;2.10;;
31482;SDS011;18103;52.246;8.052;2023-04-15T12:28:52;2.83;;;2.13;;
31482;SDS011;18103;52.246;8.052;2023-04-15T12:31:19;4.87;;;1.70;;
31482;SDS011;18103;52.246;8.052;2023-04-15T12:33:47;4.83;;;1.67;;
31482;SDS011;18103;52.246;8.052;2023-04-15T12:36:15;3.20;;;2.20;;
31482;SDS011;18103;52.246;8.052;2023-04-15T12:38:43;3.37;;;1.77;;
31482;SDS011;18103;52.246;8.052;2023-04-15T12:41:08;3.80;;;1.87;;
31482;SDS011;18103;52.246;8.052;2023-04-15T12:43:34;3.90;;;1.77;;
31482;SDS011;18103;52.246;8.052;2023-04-15T12:46:02;5.97;;;1.77;;
31482;SDS011;18103;52.246;8.052;2023-04-15T12:48:27;3.13;;;1.70;;
31482;SDS011;18103;52.246;8.052;2023-04-15T12:50:52;3.33;;;1.70;;
31482;SDS011;18103;52.246;8.052;2023-04-15T12:53:22;2.63;;;1.63;;
31482;SDS011;18103;52.246;8.052;2023-04-15T12:55:48;1.87;;;1.53;;
31482;SDS011;18103;52.246;8.052;2023-04-15T12:58:13;4.37;;;2.03;;
31482;SDS011;18103;52.246;8.052;2023-04-15T13:00:39;3.23;;;1.87;;
31482;SDS011;18103;52.246;8.052;2023-04-15T13:03:04;2.80;;;1.83;;
31482;SDS011;18103;52.246;8.052;2023-04-15T13:05:32;3.13;;;2.00;;
31482;SDS011;18103;52.246;8.052;2023-04-15T13:07:58;3.03;;;1.60;;
31482;SDS011;18103;52.246;8.052;2023-04-15T13:10:23;7.67;;;2.03;;
31482;SDS011;18103;52.246;8.052;2023-04-15T13:12:49;4.57;;;1.70;;
31482;SDS011;18103;52.246;8.052;2023-04-15T13:15:17;2.90;;;1.50;;
31482;SDS011;18103;52.246;8.052;2023-04-15T13:17:46;2.73;;;1.80;;
31482;SDS011;18103;52.246;8.052;2023-04-15T13:20:12;2.90;;;1.40;;
31482;SDS011;18103;52.246;8.052;2023-04-15T13:22:40;3.03;;;2.07;;
31482;SDS011;18103;52.246;8.052;2023-04-15T13:25:10;4.03;;;2.30;;
31482;SDS011;18103;52.246;8.052;2023-04-15T13:27:38;5.47;;;2.40;;
31482;SDS011;18103;52.246;8.052;2023-04-15T13:30:04;3.23;;;2.40;;
31482;SDS011;18103;52.246;8.052;2023-04-15T13:32:30;2.23;;;1.67;;
31482;SDS011;18103;52.246;8.052;2023-04-15T13:34:57;5.93;;;1.87;;
31482;SDS011;18103;52.246;8.052;2023-04-15T13:37:26;5.43;;;2.47;;
31482;SDS011;18103;52.246;8.052;2023-04-15T13:39:53;3.33;;;2.30;;
31482;SDS011;18103;52.246;8.052;2023-04-15T13:42:18;4.83;;;2.10;;
31482;SDS011;18103;52.246;8.052;2023-04-15T13:44:46;4.17;;;2.10;;
31482;SDS011;18103;52.246;8.052;2023-04-15T13:47:11;5.40;;;1.90;;
31482;SDS011;18103;52.246;8.052;2023-04-15T13:49:38;4.63;;;2.43;;
31482;SDS011;18103;52.246;8.052;2023-04-15T13:52:04;5.43;;;2.67;;
31482;SDS011;18103;52.246;8.052;2023-04-15T13:54:32;4.93;;;2.60;;
31482;SDS011;18103;52.246;8.052;2023-04-15T13:56:58;3.17;;;2.23;;
31482;SDS011;18103;52.246;8.052;2023-04-15T13:59:23;3.60;;;2.53;;
31482;SDS011;18103;52.246;8.052;2023-04-15T14:01:48;2.97;;;2.13;;
31482;SDS011;18103;52.246;8.052;2023-04-15T14:04:14;3.83;;;2.07;;
31482;SDS011;18103;52.246;8.052;2023-04-15T14:06:39;4.90;;;2.57;;
31482;SDS011;18103;52.246;8.052;2023-04-15T14:09:05;4.97;;;2.47;;
31482;SDS011;18103;52.246;8.052;2023-04-15T14:11:30;6.07;;;2.27;;
31482;SDS011;18103;52.246;8.052;2023-04-15T14:13:56;5.07;;;2.57;;
31482;SDS011;18103;52.246;8.052;2023-04-15T14:16:21;4.87;;;2.23;;
31482;SDS011;18103;52.246;8.052;2023-04-15T14:18:46;5.27;;;2.33;;
31482;SDS011;18103;52.246;8.052;2023-04-15T14:21:14;4.87;;;2.47;;
31482;SDS011;18103;52.246;8.052;2023-04-15T14:23:40;3.50;;;2.63;;
31482;SDS011;18103;52.246;8.052;2023-04-15T14:26:05;3.53;;;2.43;;
31482;SDS011;18103;52.246;8.052;2023-04-15T14:28:33;3.57;;;2.33;;
31482;SDS011;18103;52.246;8.052;2023-04-15T14:31:05;7.47;;;2.97;;
31482;SDS011;18103;52.246;8.052;2023-04-15T14:33:31;3.40;;;2.33;;
31482;SDS011;18103;52.246;8.052;2023-04-15T14:35:56;5.33;;;2.90;;
31482;SDS011;18103;52.246;8.052;2023-04-15T14:38:21;6.10;;;3.03;;
31482;SDS011;18103;52.246;8.052;2023-04-15T14:40:50;7.23;;;2.87;;
31482;SDS011;18103;52.246;8.052;2023-04-15T14:43:15;5.40;;;2.80;;
31482;SDS011;18103;52.246;8.052;2023-04-15T14:45:41;5.87;;;3.10;;
31482;SDS011;18103;52.246;8.052;2023-04-15T14:48:09;6.00;;;3.23;;
31482;SDS011;18103;52.246;8.052;2023-04-15T14:50:36;4.90;;;2.80;;
31482;SDS011;18103;52.246;8.052;2023-04-15T14:53:02;5.33;;;3.57;;
31482;SDS011;18103;52.246;8.052;2023-04-15T14:55:32;6.00;;;3.10;;
31482;SDS011;18103;52.246;8.052;2023-04-15T14:57:57;5.17;;;2.83;;
31482;SDS011;18103;52.246;8.052;2023-04-15T15:00:28;6.53;;;3.53;;
31482;SDS011;18103;52.246;8.052;2023-04-15T15:02:54;7.83;;;4.13;;
31482;SDS011;18103;52.246;8.052;2023-04-15T15:05:20;7.13;;;3.80;;
31482;SDS011;18103;52.246;8.052;2023-04-15T15:07:49;7.07;;;3.63;;
31482;SDS011;18103;52.246;8.052;2023-04-15T15:10:15;6.80;;;3.60;;
31482;SDS011;18103;52.246;8.052;2023-04-15T15:12:40;7.17;;;4.00;;